Terminal Aerodrome Forecast
Issued by NWS

Home | Current Version | Previous Version | Text Only | Print | Product List | Glossary On
Versions: 1 2 3 4 5 6 7 8 9 10 11 12 13 14 15
693
FTUS43 KGRR 292340
TAFAZO
TAF
KAZO 292340Z 3000/3024 07008KT P6SM -SHRA OVC035
     FM300100 06009G14KT 5SM -SHRA BR OVC020
     FM300400 07011G19KT 4SM RA BR VCTS OVC009CB
     FM300600 08010G17KT 3SM RA BR VCTS OVC005CB
     FM301300 12008KT 3SM -SHRA BR OVC005
     FM302000 12008KT 2SM -SHRA BR VCTS OVC003CB=

USA.gov is the U.S. government's official web portal to all federal, state and local government web resources and services.